sensor_id;sensor_type;location;lat;lon;timestamp;pressure;altitude;pressure_sealevel;temperature;humidity
19843;BME280;10082;51.038;6.992;2022-10-29T00:00:48;112171.53;;;-144.33;100.00
19843;BME280;10082;51.038;6.992;2022-10-29T00:03:18;112171.53;;;-144.33;100.00
19843;BME280;10082;51.038;6.992;2022-10-29T00:05:54;112171.53;;;-144.33;100.00
19843;BME280;10082;51.038;6.992;2022-10-29T00:08:21;112171.53;;;-144.33;100.00
19843;BME280;10082;51.038;6.992;2022-10-29T00:10:48;112171.53;;;-144.33;100.00
19843;BME280;10082;51.038;6.992;2022-10-29T00:13:15;112171.53;;;-144.33;100.00
19843;BME280;10082;51.038;6.992;2022-10-29T00:15:42;112171.53;;;-144.33;100.00
19843;BME280;10082;51.038;6.992;2022-10-29T00:18:09;112171.53;;;-144.33;100.00
19843;BME280;10082;51.038;6.992;2022-10-29T00:20:38;112171.53;;;-144.33;100.00
19843;BME280;10082;51.038;6.992;2022-10-29T00:23:05;112171.53;;;-144.33;100.00
19843;BME280;10082;51.038;6.992;2022-10-29T00:25:32;112171.53;;;-144.33;100.00
19843;BME280;10082;51.038;6.992;2022-10-29T00:27:59;112171.53;;;-144.33;100.00
19843;BME280;10082;51.038;6.992;2022-10-29T00:30:26;112171.53;;;-144.33;100.00
19843;BME280;10082;51.038;6.992;2022-10-29T00:32:53;112171.53;;;-144.33;100.00
19843;BME280;10082;51.038;6.992;2022-10-29T00:35:20;112171.53;;;-144.33;100.00
19843;BME280;10082;51.038;6.992;2022-10-29T00:37:48;112171.53;;;-144.33;100.00
19843;BME280;10082;51.038;6.992;2022-10-29T00:40:15;112171.53;;;-144.33;100.00
19843;BME280;10082;51.038;6.992;2022-10-29T00:42:42;112171.53;;;-144.33;100.00
19843;BME280;10082;51.038;6.992;2022-10-29T00:45:16;112171.53;;;-144.33;100.00
19843;BME280;10082;51.038;6.992;2022-10-29T00:47:48;112171.53;;;-144.33;100.00
19843;BME280;10082;51.038;6.992;2022-10-29T00:50:18;112171.53;;;-144.33;100.00
19843;BME280;10082;51.038;6.992;2022-10-29T00:52:49;112171.53;;;-144.33;100.00
19843;BME280;10082;51.038;6.992;2022-10-29T00:55:16;112171.53;;;-144.33;100.00
19843;BME280;10082;51.038;6.992;2022-10-29T00:57:47;112171.53;;;-144.33;100.00
19843;BME280;10082;51.038;6.992;2022-10-29T01:00:16;112171.53;;;-144.33;100.00
19843;BME280;10082;51.038;6.992;2022-10-29T01:02:44;112171.53;;;-144.33;100.00
19843;BME280;10082;51.038;6.992;2022-10-29T01:05:12;112171.53;;;-144.33;100.00
19843;BME280;10082;51.038;6.992;2022-10-29T01:07:41;112171.53;;;-144.33;100.00
19843;BME280;10082;51.038;6.992;2022-10-29T01:10:10;112171.53;;;-144.33;100.00
19843;BME280;10082;51.038;6.992;2022-10-29T01:12:51;112171.53;;;-144.33;100.00
19843;BME280;10082;51.038;6.992;2022-10-29T01:15:26;112171.53;;;-144.33;100.00
19843;BME280;10082;51.038;6.992;2022-10-29T01:18:05;112171.53;;;-144.33;100.00
19843;BME280;10082;51.038;6.992;2022-10-29T01:21:00;112171.53;;;-144.33;100.00
19843;BME280;10082;51.038;6.992;2022-10-29T01:27:16;112171.53;;;-144.33;100.00
19843;BME280;10082;51.038;6.992;2022-10-29T01:29:56;112171.53;;;-144.33;100.00
19843;BME280;10082;51.038;6.992;2022-10-29T01:32:32;112171.53;;;-144.33;100.00
19843;BME280;10082;51.038;6.992;2022-10-29T01:35:09;112171.53;;;-144.33;100.00
19843;BME280;10082;51.038;6.992;2022-10-29T01:37:45;112171.53;;;-144.33;100.00
19843;BME280;10082;51.038;6.992;2022-10-29T01:40:22;112171.53;;;-144.33;100.00
19843;BME280;10082;51.038;6.992;2022-10-29T01:42:53;112171.53;;;-144.33;100.00
19843;BME280;10082;51.038;6.992;2022-10-29T01:45:27;112171.53;;;-144.33;100.00
19843;BME280;10082;51.038;6.992;2022-10-29T01:48:03;112171.53;;;-144.33;100.00
19843;BME280;10082;51.038;6.992;2022-10-29T01:50:34;112171.53;;;-144.33;100.00
19843;BME280;10082;51.038;6.992;2022-10-29T01:53:03;112171.53;;;-144.33;100.00
19843;BME280;10082;51.038;6.992;2022-10-29T01:55:32;112171.53;;;-144.33;100.00
19843;BME280;10082;51.038;6.992;2022-10-29T01:58:00;112171.53;;;-144.33;100.00
19843;BME280;10082;51.038;6.992;2022-10-29T02:00:30;112171.53;;;-144.33;100.00
19843;BME280;10082;51.038;6.992;2022-10-29T02:03:13;112171.53;;;-144.33;100.00
19843;BME280;10082;51.038;6.992;2022-10-29T02:05:51;112171.53;;;-144.33;100.00
19843;BME280;10082;51.038;6.992;2022-10-29T02:08:28;112171.53;;;-144.33;100.00
19843;BME280;10082;51.038;6.992;2022-10-29T02:11:02;112171.53;;;-144.33;100.00
19843;BME280;10082;51.038;6.992;2022-10-29T02:13:36;112171.53;;;-144.33;100.00
19843;BME280;10082;51.038;6.992;2022-10-29T02:16:07;112171.53;;;-144.33;100.00
19843;BME280;10082;51.038;6.992;2022-10-29T02:18:40;112171.53;;;-144.33;100.00
19843;BME280;10082;51.038;6.992;2022-10-29T02:21:08;112171.53;;;-144.33;100.00
19843;BME280;10082;51.038;6.992;2022-10-29T02:23:35;112171.53;;;-144.33;100.00
19843;BME280;10082;51.038;6.992;2022-10-29T02:26:03;112171.53;;;-144.33;100.00
19843;BME280;10082;51.038;6.992;2022-10-29T02:28:30;112171.53;;;-144.33;100.00
19843;BME280;10082;51.038;6.992;2022-10-29T02:30:57;112171.53;;;-144.33;100.00
19843;BME280;10082;51.038;6.992;2022-10-29T02:33:24;112171.53;;;-144.33;100.00
19843;BME280;10082;51.038;6.992;2022-10-29T02:35:53;112171.53;;;-144.33;100.00
19843;BME280;10082;51.038;6.992;2022-10-29T02:38:20;112171.53;;;-144.33;100.00
19843;BME280;10082;51.038;6.992;2022-10-29T02:40:47;112171.53;;;-144.33;100.00
19843;BME280;10082;51.038;6.992;2022-10-29T02:43:14;112171.53;;;-144.33;100.00
19843;BME280;10082;51.038;6.992;2022-10-29T02:45:41;112171.53;;;-144.33;100.00
19843;BME280;10082;51.038;6.992;2022-10-29T02:48:08;112171.53;;;-144.33;100.00
19843;BME280;10082;51.038;6.992;2022-10-29T02:50:36;112171.53;;;-144.33;100.00
19843;BME280;10082;51.038;6.992;2022-10-29T02:53:04;112171.53;;;-144.33;100.00
19843;BME280;10082;51.038;6.992;2022-10-29T02:55:31;112171.53;;;-144.33;100.00
19843;BME280;10082;51.038;6.992;2022-10-29T02:57:58;112171.53;;;-144.33;100.00
19843;BME280;10082;51.038;6.992;2022-10-29T03:00:25;112171.53;;;-144.33;100.00
19843;BME280;10082;51.038;6.992;2022-10-29T03:02:53;112171.53;;;-144.33;100.00
19843;BME280;10082;51.038;6.992;2022-10-29T03:05:20;112171.53;;;-144.33;100.00
19843;BME280;10082;51.038;6.992;2022-10-29T03:07:47;112171.53;;;-144.33;100.00
19843;BME280;10082;51.038;6.992;2022-10-29T03:10:15;112171.53;;;-144.33;100.00
19843;BME280;10082;51.038;6.992;2022-10-29T03:12:42;112171.53;;;-144.33;100.00
19843;BME280;10082;51.038;6.992;2022-10-29T03:15:09;112171.53;;;-144.33;100.00
19843;BME280;10082;51.038;6.992;2022-10-29T03:17:36;112171.53;;;-144.33;100.00
19843;BME280;10082;51.038;6.992;2022-10-29T03:20:04;112171.53;;;-144.33;100.00
19843;BME280;10082;51.038;6.992;2022-10-29T03:22:31;112171.53;;;-144.33;100.00
19843;BME280;10082;51.038;6.992;2022-10-29T03:24:59;112171.53;;;-144.33;100.00
19843;BME280;10082;51.038;6.992;2022-10-29T03:27:27;112171.53;;;-144.33;100.00
19843;BME280;10082;51.038;6.992;2022-10-29T03:29:54;112171.53;;;-144.33;100.00
19843;BME280;10082;51.038;6.992;2022-10-29T03:32:21;112171.53;;;-144.33;100.00
19843;BME280;10082;51.038;6.992;2022-10-29T03:34:49;112171.53;;;-144.33;100.00
19843;BME280;10082;51.038;6.992;2022-10-29T03:37:16;112171.53;;;-144.33;100.00
19843;BME280;10082;51.038;6.992;2022-10-29T03:39:46;112171.53;;;-144.33;100.00
19843;BME280;10082;51.038;6.992;2022-10-29T03:42:13;112171.53;;;-144.33;100.00
19843;BME280;10082;51.038;6.992;2022-10-29T03:44:41;112171.53;;;-144.33;100.00
19843;BME280;10082;51.038;6.992;2022-10-29T03:47:08;112171.53;;;-144.33;100.00
19843;BME280;10082;51.038;6.992;2022-10-29T03:49:35;112171.53;;;-144.33;100.00
19843;BME280;10082;51.038;6.992;2022-10-29T03:52:02;112171.53;;;-144.33;100.00
19843;BME280;10082;51.038;6.992;2022-10-29T03:54:29;112171.53;;;-144.33;100.00
19843;BME280;10082;51.038;6.992;2022-10-29T03:56:56;112171.53;;;-144.33;100.00
19843;BME280;10082;51.038;6.992;2022-10-29T03:59:23;112171.53;;;-144.33;100.00
19843;BME280;10082;51.038;6.992;2022-10-29T04:01:52;112171.53;;;-144.33;100.00
19843;BME280;10082;51.038;6.992;2022-10-29T04:04:19;112171.53;;;-144.33;100.00
19843;BME280;10082;51.038;6.992;2022-10-29T04:06:46;112171.53;;;-144.33;100.00
19843;BME280;10082;51.038;6.992;2022-10-29T04:09:13;112171.53;;;-144.33;100.00
19843;BME280;10082;51.038;6.992;2022-10-29T04:11:41;112171.53;;;-144.33;100.00
19843;BME280;10082;51.038;6.992;2022-10-29T04:14:08;112171.53;;;-144.33;100.00
19843;BME280;10082;51.038;6.992;2022-10-29T04:16:36;112171.53;;;-144.33;100.00
19843;BME280;10082;51.038;6.992;2022-10-29T04:19:04;112171.53;;;-144.33;100.00
19843;BME280;10082;51.038;6.992;2022-10-29T04:21:31;112171.53;;;-144.33;100.00
19843;BME280;10082;51.038;6.992;2022-10-29T04:23:58;112171.53;;;-144.33;100.00
19843;BME280;10082;51.038;6.992;2022-10-29T04:26:26;112171.53;;;-144.33;100.00
19843;BME280;10082;51.038;6.992;2022-10-29T04:28:53;112171.53;;;-144.33;100.00
19843;BME280;10082;51.038;6.992;2022-10-29T04:31:20;112171.53;;;-144.33;100.00
19843;BME280;10082;51.038;6.992;2022-10-29T04:33:47;112171.53;;;-144.33;100.00
19843;BME280;10082;51.038;6.992;2022-10-29T04:36:16;112171.53;;;-144.33;100.00
19843;BME280;10082;51.038;6.992;2022-10-29T04:38:43;112171.53;;;-144.33;100.00
19843;BME280;10082;51.038;6.992;2022-10-29T04:41:09;112171.53;;;-144.33;100.00
19843;BME280;10082;51.038;6.992;2022-10-29T04:43:37;112171.53;;;-144.33;100.00
19843;BME280;10082;51.038;6.992;2022-10-29T04:46:04;112171.53;;;-144.33;100.00
19843;BME280;10082;51.038;6.992;2022-10-29T04:48:31;112171.53;;;-144.33;100.00
19843;BME280;10082;51.038;6.992;2022-10-29T04:50:58;112171.53;;;-144.33;100.00
19843;BME280;10082;51.038;6.992;2022-10-29T04:53:27;112171.53;;;-144.33;100.00
19843;BME280;10082;51.038;6.992;2022-10-29T04:55:58;112171.53;;;-144.33;100.00
19843;BME280;10082;51.038;6.992;2022-10-29T04:58:26;112171.53;;;-144.33;100.00
19843;BME280;10082;51.038;6.992;2022-10-29T05:00:53;112171.53;;;-144.33;100.00
19843;BME280;10082;51.038;6.992;2022-10-29T05:03:20;112171.53;;;-144.33;100.00
19843;BME280;10082;51.038;6.992;2022-10-29T05:05:47;112171.53;;;-144.33;100.00
19843;BME280;10082;51.038;6.992;2022-10-29T05:08:14;112171.53;;;-144.33;100.00
19843;BME280;10082;51.038;6.992;2022-10-29T05:10:44;112171.53;;;-144.33;100.00
19843;BME280;10082;51.038;6.992;2022-10-29T05:13:11;112171.53;;;-144.33;100.00
19843;BME280;10082;51.038;6.992;2022-10-29T05:15:39;112171.53;;;-144.33;100.00
19843;BME280;10082;51.038;6.992;2022-10-29T05:18:06;112171.53;;;-144.33;100.00
19843;BME280;10082;51.038;6.992;2022-10-29T05:20:34;112171.53;;;-144.33;100.00
19843;BME280;10082;51.038;6.992;2022-10-29T05:23:03;112171.53;;;-144.33;100.00
19843;BME280;10082;51.038;6.992;2022-10-29T05:25:32;112171.53;;;-144.33;100.00
19843;BME280;10082;51.038;6.992;2022-10-29T05:28:03;112171.53;;;-144.33;100.00
19843;BME280;10082;51.038;6.992;2022-10-29T05:30:32;112171.53;;;-144.33;100.00
19843;BME280;10082;51.038;6.992;2022-10-29T05:32:59;112171.53;;;-144.33;100.00
19843;BME280;10082;51.038;6.992;2022-10-29T05:35:27;112171.53;;;-144.33;100.00
19843;BME280;10082;51.038;6.992;2022-10-29T05:37:55;112171.53;;;-144.33;100.00
19843;BME280;10082;51.038;6.992;2022-10-29T05:40:22;112171.53;;;-144.33;100.00
19843;BME280;10082;51.038;6.992;2022-10-29T05:42:49;112171.53;;;-144.33;100.00
19843;BME280;10082;51.038;6.992;2022-10-29T05:45:20;112171.53;;;-144.33;100.00
19843;BME280;10082;51.038;6.992;2022-10-29T05:47:47;112171.53;;;-144.33;100.00
19843;BME280;10082;51.038;6.992;2022-10-29T05:50:14;112171.53;;;-144.33;100.00
19843;BME280;10082;51.038;6.992;2022-10-29T05:52:41;112171.53;;;-144.33;100.00
19843;BME280;10082;51.038;6.992;2022-10-29T05:55:08;112171.53;;;-144.33;100.00
19843;BME280;10082;51.038;6.992;2022-10-29T05:57:35;112171.53;;;-144.33;100.00
19843;BME280;10082;51.038;6.992;2022-10-29T06:00:03;112171.53;;;-144.33;100.00
19843;BME280;10082;51.038;6.992;2022-10-29T06:02:41;112171.53;;;-144.33;100.00
19843;BME280;10082;51.038;6.992;2022-10-29T06:05:08;112171.53;;;-144.33;100.00
19843;BME280;10082;51.038;6.992;2022-10-29T06:07:41;112171.53;;;-144.33;100.00
19843;BME280;10082;51.038;6.992;2022-10-29T06:10:08;112171.53;;;-144.33;100.00
19843;BME280;10082;51.038;6.992;2022-10-29T06:12:35;112171.53;;;-144.33;100.00
19843;BME280;10082;51.038;6.992;2022-10-29T06:15:02;112171.53;;;-144.33;100.00
19843;BME280;10082;51.038;6.992;2022-10-29T06:17:29;112171.53;;;-144.33;100.00
19843;BME280;10082;51.038;6.992;2022-10-29T06:19:57;112171.53;;;-144.33;100.00
19843;BME280;10082;51.038;6.992;2022-10-29T06:22:24;112171.53;;;-144.33;100.00
19843;BME280;10082;51.038;6.992;2022-10-29T06:24:51;112171.53;;;-144.33;100.00
19843;BME280;10082;51.038;6.992;2022-10-29T06:27:18;112171.53;;;-144.33;100.00
19843;BME280;10082;51.038;6.992;2022-10-29T06:29:45;112171.53;;;-144.33;100.00
19843;BME280;10082;51.038;6.992;2022-10-29T06:32:12;112171.53;;;-144.33;100.00
19843;BME280;10082;51.038;6.992;2022-10-29T06:34:39;112171.53;;;-144.33;100.00
19843;BME280;10082;51.038;6.992;2022-10-29T06:37:08;112171.53;;;-144.33;100.00
19843;BME280;10082;51.038;6.992;2022-10-29T06:39:35;112171.53;;;-144.33;100.00
19843;BME280;10082;51.038;6.992;2022-10-29T06:42:02;112171.53;;;-144.33;100.00
19843;BME280;10082;51.038;6.992;2022-10-29T06:44:29;112171.53;;;-144.33;100.00
19843;BME280;10082;51.038;6.992;2022-10-29T06:46:56;112171.53;;;-144.33;100.00
19843;BME280;10082;51.038;6.992;2022-10-29T06:49:23;112171.53;;;-144.33;100.00
19843;BME280;10082;51.038;6.992;2022-10-29T06:51:51;112171.53;;;-144.33;100.00
19843;BME280;10082;51.038;6.992;2022-10-29T06:54:19;112171.53;;;-144.33;100.00
19843;BME280;10082;51.038;6.992;2022-10-29T06:56:48;112171.53;;;-144.33;100.00
19843;BME280;10082;51.038;6.992;2022-10-29T06:59:16;112171.53;;;-144.33;100.00
19843;BME280;10082;51.038;6.992;2022-10-29T07:01:43;112171.53;;;-144.33;100.00
19843;BME280;10082;51.038;6.992;2022-10-29T07:04:11;112171.53;;;-144.33;100.00
19843;BME280;10082;51.038;6.992;2022-10-29T07:06:37;112171.53;;;-144.33;100.00
19843;BME280;10082;51.038;6.992;2022-10-29T07:09:05;112171.53;;;-144.33;100.00
19843;BME280;10082;51.038;6.992;2022-10-29T07:11:33;112171.53;;;-144.33;100.00
19843;BME280;10082;51.038;6.992;2022-10-29T07:14:00;112171.53;;;-144.33;100.00
19843;BME280;10082;51.038;6.992;2022-10-29T07:16:30;112171.53;;;-144.33;100.00
19843;BME280;10082;51.038;6.992;2022-10-29T07:18:57;112171.53;;;-144.33;100.00
19843;BME280;10082;51.038;6.992;2022-10-29T07:21:24;112171.53;;;-144.33;100.00
19843;BME280;10082;51.038;6.992;2022-10-29T07:23:51;112171.53;;;-144.33;100.00
19843;BME280;10082;51.038;6.992;2022-10-29T07:26:18;112171.53;;;-144.33;100.00
19843;BME280;10082;51.038;6.992;2022-10-29T07:28:46;112171.53;;;-144.33;100.00
19843;BME280;10082;51.038;6.992;2022-10-29T07:31:13;112171.53;;;-144.33;100.00
19843;BME280;10082;51.038;6.992;2022-10-29T07:33:40;112171.53;;;-144.33;100.00
19843;BME280;10082;51.038;6.992;2022-10-29T07:36:07;112171.53;;;-144.33;100.00
19843;BME280;10082;51.038;6.992;2022-10-29T07:38:34;112171.53;;;-144.33;100.00
19843;BME280;10082;51.038;6.992;2022-10-29T07:41:01;112171.53;;;-144.33;100.00
19843;BME280;10082;51.038;6.992;2022-10-29T07:43:28;112171.53;;;-144.33;100.00
19843;BME280;10082;51.038;6.992;2022-10-29T07:45:57;112171.53;;;-144.33;100.00
19843;BME280;10082;51.038;6.992;2022-10-29T07:48:24;112171.53;;;-144.33;100.00
19843;BME280;10082;51.038;6.992;2022-10-29T07:50:51;112171.53;;;-144.33;100.00
19843;BME280;10082;51.038;6.992;2022-10-29T07:56:40;112171.53;;;-144.33;100.00
19843;BME280;10082;51.038;6.992;2022-10-29T07:59:08;112171.53;;;-144.33;100.00
19843;BME280;10082;51.038;6.992;2022-10-29T08:01:40;112171.53;;;-144.33;100.00
19843;BME280;10082;51.038;6.992;2022-10-29T08:04:07;112171.53;;;-144.33;100.00
19843;BME280;10082;51.038;6.992;2022-10-29T08:06:33;112171.53;;;-144.33;100.00
19843;BME280;10082;51.038;6.992;2022-10-29T08:09:00;112171.53;;;-144.33;100.00
19843;BME280;10082;51.038;6.992;2022-10-29T08:11:29;112171.53;;;-144.33;100.00
19843;BME280;10082;51.038;6.992;2022-10-29T08:13:57;112171.53;;;-144.33;100.00
19843;BME280;10082;51.038;6.992;2022-10-29T08:16:24;112171.53;;;-144.33;100.00
19843;BME280;10082;51.038;6.992;2022-10-29T08:18:53;112171.53;;;-144.33;100.00
19843;BME280;10082;51.038;6.992;2022-10-29T08:21:19;112171.53;;;-144.33;100.00
19843;BME280;10082;51.038;6.992;2022-10-29T08:23:47;112171.53;;;-144.33;100.00
19843;BME280;10082;51.038;6.992;2022-10-29T08:26:14;112171.53;;;-144.33;100.00
19843;BME280;10082;51.038;6.992;2022-10-29T08:28:41;112171.53;;;-144.33;100.00
19843;BME280;10082;51.038;6.992;2022-10-29T08:31:08;112171.53;;;-144.33;100.00
19843;BME280;10082;51.038;6.992;2022-10-29T08:33:35;112171.53;;;-144.33;100.00
19843;BME280;10082;51.038;6.992;2022-10-29T08:36:04;112171.53;;;-144.33;100.00
19843;BME280;10082;51.038;6.992;2022-10-29T08:38:32;112171.53;;;-144.33;100.00
19843;BME280;10082;51.038;6.992;2022-10-29T08:41:19;112171.53;;;-144.33;100.00
19843;BME280;10082;51.038;6.992;2022-10-29T08:44:14;112171.53;;;-144.33;100.00
19843;BME280;10082;51.038;6.992;2022-10-29T08:46:47;112171.53;;;-144.33;100.00
19843;BME280;10082;51.038;6.992;2022-10-29T08:49:17;112171.53;;;-144.33;100.00
19843;BME280;10082;51.038;6.992;2022-10-29T08:51:52;112171.53;;;-144.33;100.00
19843;BME280;10082;51.038;6.992;2022-10-29T08:54:21;112171.53;;;-144.33;100.00
19843;BME280;10082;51.038;6.992;2022-10-29T08:56:53;112171.53;;;-144.33;100.00
19843;BME280;10082;51.038;6.992;2022-10-29T08:59:22;112171.53;;;-144.33;100.00
19843;BME280;10082;51.038;6.992;2022-10-29T09:01:50;112171.53;;;-144.33;100.00
19843;BME280;10082;51.038;6.992;2022-10-29T09:04:22;112171.53;;;-144.33;100.00
19843;BME280;10082;51.038;6.992;2022-10-29T09:07:06;112171.53;;;-144.33;100.00
19843;BME280;10082;51.038;6.992;2022-10-29T09:09:38;112171.53;;;-144.33;100.00
19843;BME280;10082;51.038;6.992;2022-10-29T09:12:35;112171.53;;;-144.33;100.00
19843;BME280;10082;51.038;6.992;2022-10-29T09:15:39;112171.53;;;-144.33;100.00
19843;BME280;10082;51.038;6.992;2022-10-29T09:18:21;112171.53;;;-144.33;100.00
19843;BME280;10082;51.038;6.992;2022-10-29T09:20:52;112171.53;;;-144.33;100.00
19843;BME280;10082;51.038;6.992;2022-10-29T09:23:30;112171.53;;;-144.33;100.00
19843;BME280;10082;51.038;6.992;2022-10-29T09:26:12;112171.53;;;-144.33;100.00
19843;BME280;10082;51.038;6.992;2022-10-29T09:28:53;112171.53;;;-144.33;100.00
19843;BME280;10082;51.038;6.992;2022-10-29T09:31:28;112171.53;;;-144.33;100.00
19843;BME280;10082;51.038;6.992;2022-10-29T09:33:59;112171.53;;;-144.33;100.00
19843;BME280;10082;51.038;6.992;2022-10-29T09:36:28;112171.53;;;-144.33;100.00
19843;BME280;10082;51.038;6.992;2022-10-29T09:39:00;112171.53;;;-144.33;100.00
19843;BME280;10082;51.038;6.992;2022-10-29T09:41:31;112171.53;;;-144.33;100.00
19843;BME280;10082;51.038;6.992;2022-10-29T09:43:59;112171.53;;;-144.33;100.00
19843;BME280;10082;51.038;6.992;2022-10-29T09:46:36;112171.53;;;-144.33;100.00
19843;BME280;10082;51.038;6.992;2022-10-29T09:49:14;112171.53;;;-144.33;100.00
19843;BME280;10082;51.038;6.992;2022-10-29T09:51:51;112171.53;;;-144.33;100.00
19843;BME280;10082;51.038;6.992;2022-10-29T09:54:22;112171.53;;;-144.33;100.00
19843;BME280;10082;51.038;6.992;2022-10-29T09:56:50;112171.53;;;-144.33;100.00
19843;BME280;10082;51.038;6.992;2022-10-29T09:59:27;112171.53;;;-144.33;100.00
19843;BME280;10082;51.038;6.992;2022-10-29T10:01:55;112171.53;;;-144.33;100.00
19843;BME280;10082;51.038;6.992;2022-10-29T10:04:26;112171.53;;;-144.33;100.00
19843;BME280;10082;51.038;6.992;2022-10-29T10:07:04;112171.53;;;-144.33;100.00
19843;BME280;10082;51.038;6.992;2022-10-29T10:09:55;112171.53;;;-144.33;100.00
19843;BME280;10082;51.038;6.992;2022-10-29T10:12:25;112171.53;;;-144.33;100.00
19843;BME280;10082;51.038;6.992;2022-10-29T10:15:15;112171.53;;;-144.33;100.00
19843;BME280;10082;51.038;6.992;2022-10-29T10:17:55;112171.53;;;-144.33;100.00
19843;BME280;10082;51.038;6.992;2022-10-29T10:20:32;112171.53;;;-144.33;100.00
19843;BME280;10082;51.038;6.992;2022-10-29T10:22:59;112171.53;;;-144.33;100.00
19843;BME280;10082;51.038;6.992;2022-10-29T10:25:33;112171.53;;;-144.33;100.00
19843;BME280;10082;51.038;6.992;2022-10-29T10:28:14;112171.53;;;-144.33;100.00
19843;BME280;10082;51.038;6.992;2022-10-29T10:30:42;112171.53;;;-144.33;100.00
19843;BME280;10082;51.038;6.992;2022-10-29T10:33:10;112171.53;;;-144.33;100.00
19843;BME280;10082;51.038;6.992;2022-10-29T10:35:38;112171.53;;;-144.33;100.00
19843;BME280;10082;51.038;6.992;2022-10-29T10:38:08;112171.53;;;-144.33;100.00
19843;BME280;10082;51.038;6.992;2022-10-29T10:40:37;112171.53;;;-144.33;100.00
19843;BME280;10082;51.038;6.992;2022-10-29T10:43:04;112171.53;;;-144.33;100.00
19843;BME280;10082;51.038;6.992;2022-10-29T10:45:35;112171.53;;;-144.33;100.00
19843;BME280;10082;51.038;6.992;2022-10-29T10:48:07;112171.53;;;-144.33;100.00
19843;BME280;10082;51.038;6.992;2022-10-29T10:50:36;112171.53;;;-144.33;100.00
19843;BME280;10082;51.038;6.992;2022-10-29T10:53:13;112171.53;;;-144.33;100.00
19843;BME280;10082;51.038;6.992;2022-10-29T10:55:45;112171.53;;;-144.33;100.00
19843;BME280;10082;51.038;6.992;2022-10-29T10:58:17;112171.53;;;-144.33;100.00
19843;BME280;10082;51.038;6.992;2022-10-29T11:00:52;112171.53;;;-144.33;100.00
19843;BME280;10082;51.038;6.992;2022-10-29T11:03:23;112171.53;;;-144.33;100.00
19843;BME280;10082;51.038;6.992;2022-10-29T11:06:00;112171.53;;;-144.33;100.00
19843;BME280;10082;51.038;6.992;2022-10-29T11:08:32;112171.53;;;-144.33;100.00
19843;BME280;10082;51.038;6.992;2022-10-29T11:11:05;112171.53;;;-144.33;100.00
19843;BME280;10082;51.038;6.992;2022-10-29T11:13:38;112171.53;;;-144.33;100.00
19843;BME280;10082;51.038;6.992;2022-10-29T11:16:12;112171.53;;;-144.33;100.00
19843;BME280;10082;51.038;6.992;2022-10-29T11:18:44;112171.53;;;-144.33;100.00
19843;BME280;10082;51.038;6.992;2022-10-29T11:21:18;112171.53;;;-144.33;100.00
19843;BME280;10082;51.038;6.992;2022-10-29T11:23:52;112171.53;;;-144.33;100.00
19843;BME280;10082;51.038;6.992;2022-10-29T11:26:30;112171.53;;;-144.33;100.00
19843;BME280;10082;51.038;6.992;2022-10-29T11:29:04;112171.53;;;-144.33;100.00
19843;BME280;10082;51.038;6.992;2022-10-29T11:31:40;112171.53;;;-144.33;100.00
19843;BME280;10082;51.038;6.992;2022-10-29T11:34:14;112171.53;;;-144.33;100.00
19843;BME280;10082;51.038;6.992;2022-10-29T11:36:49;112171.53;;;-144.33;100.00
19843;BME280;10082;51.038;6.992;2022-10-29T11:39:22;112171.53;;;-144.33;100.00
19843;BME280;10082;51.038;6.992;2022-10-29T11:41:57;112171.53;;;-144.33;100.00
19843;BME280;10082;51.038;6.992;2022-10-29T11:44:25;112171.53;;;-144.33;100.00
19843;BME280;10082;51.038;6.992;2022-10-29T11:47:15;112171.53;;;-144.33;100.00
19843;BME280;10082;51.038;6.992;2022-10-29T11:50:02;112171.53;;;-144.33;100.00
19843;BME280;10082;51.038;6.992;2022-10-29T11:52:40;112171.53;;;-144.33;100.00
19843;BME280;10082;51.038;6.992;2022-10-29T11:55:19;112171.53;;;-144.33;100.00
19843;BME280;10082;51.038;6.992;2022-10-29T11:57:53;112171.53;;;-144.33;100.00
19843;BME280;10082;51.038;6.992;2022-10-29T12:00:22;112171.53;;;-144.33;100.00
19843;BME280;10082;51.038;6.992;2022-10-29T12:03:10;112171.53;;;-144.33;100.00
19843;BME280;10082;51.038;6.992;2022-10-29T12:05:43;112171.53;;;-144.33;99.71
19843;BME280;10082;51.038;6.992;2022-10-29T12:08:19;112171.53;;;-144.33;99.77
19843;BME280;10082;51.038;6.992;2022-10-29T12:10:53;112171.53;;;-144.33;98.49
19843;BME280;10082;51.038;6.992;2022-10-29T12:13:34;112171.53;;;-144.33;95.44
19843;BME280;10082;51.038;6.992;2022-10-29T12:16:15;112171.53;;;-144.33;93.16
19843;BME280;10082;51.038;6.992;2022-10-29T12:18:47;112171.53;;;-144.33;92.93
19843;BME280;10082;51.038;6.992;2022-10-29T12:21:24;112171.53;;;-144.33;94.92
19843;BME280;10082;51.038;6.992;2022-10-29T12:24:02;112171.53;;;-144.33;94.51
19843;BME280;10082;51.038;6.992;2022-10-29T12:26:35;112171.53;;;-144.33;93.18
19843;BME280;10082;51.038;6.992;2022-10-29T12:29:11;112171.53;;;-144.33;91.67
19843;BME280;10082;51.038;6.992;2022-10-29T12:31:43;112171.53;;;-144.33;91.26
19843;BME280;10082;51.038;6.992;2022-10-29T12:34:17;112171.53;;;-144.33;89.47
19843;BME280;10082;51.038;6.992;2022-10-29T12:36:53;112171.53;;;-144.33;89.29
19843;BME280;10082;51.038;6.992;2022-10-29T12:39:26;112171.53;;;-144.33;88.80
19843;BME280;10082;51.038;6.992;2022-10-29T12:41:59;112171.53;;;-144.33;87.51
19843;BME280;10082;51.038;6.992;2022-10-29T12:44:36;112171.53;;;-144.33;84.20